Time;durP1;ratioP1;P1;durP2;ratioP2;P2;SDS_P1;SDS_P2;PMS_P1;PMS_P2;Temp;Humidity;BMP_temperature;BMP_pressure;BME280_temperature;BME280_humidity;BME280_pressure;Samples;Min_cycle;Max_cycle;Signal;HPM_P1;HPM_P2
2021/03/24 00:01:08;;;;;;;7.83;6.27;;;19.60;43.80;;;;;;5050154;28;20493;-70
2021/03/24 00:03:34;;;;;;;8.87;6.27;;;19.50;43.80;;;;;;5069154;28;20482;-70
2021/03/24 00:06:00;;;;;;;6.77;5.47;;;19.50;44.70;;;;;;5055376;28;20482;-70
2021/03/24 00:08:26;;;;;;;5.80;5.20;;;19.50;44.00;;;;;;5070771;28;20481;-68
2021/03/24 00:10:53;;;;;;;6.70;6.03;;;19.60;44.00;;;;;;5052572;28;20474;-70
2021/03/24 00:13:19;;;;;;;8.00;6.37;;;19.60;43.90;;;;;;5052335;28;20542;-70
2021/03/24 00:15:45;;;;;;;6.63;5.53;;;19.70;44.00;;;;;;5048606;28;20496;-70
2021/03/24 00:18:12;;;;;;;7.43;6.73;;;19.70;43.90;;;;;;5051673;28;20488;-70
2021/03/24 00:20:39;;;;;;;6.87;5.70;;;19.70;43.90;;;;;;5065252;28;20497;-69
2021/03/24 00:23:05;;;;;;;9.70;5.43;;;19.70;43.70;;;;;;5042462;28;20479;-69
2021/03/24 00:25:31;;;;;;;9.00;5.83;;;19.80;43.90;;;;;;5057460;28;20479;-70
2021/03/24 00:27:58;;;;;;;7.10;5.90;;;19.80;43.80;;;;;;5065119;28;20484;-70
2021/03/24 00:30:26;;;;;;;10.33;7.43;;;19.80;43.80;;;;;;5052732;28;20971;-71
2021/03/24 00:32:52;;;;;;;6.60;5.90;;;19.80;43.70;;;;;;5052036;28;21525;-71
2021/03/24 00:35:19;;;;;;;6.40;5.80;;;19.80;43.60;;;;;;5055472;28;21124;-71
2021/03/24 00:37:45;;;;;;;9.83;6.00;;;19.70;43.70;;;;;;5056654;28;20977;-71
2021/03/24 00:40:13;;;;;;;8.30;6.93;;;19.70;43.80;;;;;;5053591;28;20501;-70
2021/03/24 00:42:39;;;;;;;8.00;5.30;;;19.70;44.00;;;;;;5053172;28;21001;-70
2021/03/24 00:45:08;;;;;;;8.73;6.40;;;19.70;43.80;;;;;;5055086;28;20475;-70
2021/03/24 00:47:34;;;;;;;6.70;5.77;;;19.60;43.60;;;;;;5067046;28;21000;-70
2021/03/24 00:50:00;;;;;;;14.50;7.13;;;19.60;43.70;;;;;;5052688;28;21491;-71
2021/03/24 00:52:26;;;;;;;9.13;6.20;;;19.60;43.80;;;;;;5054649;28;20526;-70
2021/03/24 00:54:52;;;;;;;8.70;6.70;;;19.60;43.70;;;;;;5051801;28;20482;-70
2021/03/24 00:57:18;;;;;;;9.83;6.90;;;19.60;43.60;;;;;;5053781;28;20493;-70
2021/03/24 00:59:44;;;;;;;9.17;7.20;;;19.60;43.60;;;;;;5051521;28;20482;-70
2021/03/24 01:02:11;;;;;;;13.67;8.07;;;19.50;43.60;;;;;;5055138;28;20478;-71
2021/03/24 01:04:37;;;;;;;14.33;8.63;;;19.60;43.50;;;;;;5055776;28;20527;-71
2021/03/24 01:07:05;;;;;;;9.13;6.30;;;19.60;44.30;;;;;;5049408;28;20474;-71
2021/03/24 01:09:31;;;;;;;8.13;6.97;;;19.60;43.70;;;;;;5062700;28;20497;-71
2021/03/24 01:11:57;;;;;;;9.93;6.70;;;19.60;43.80;;;;;;5051686;28;20480;-71
2021/03/24 01:14:23;;;;;;;10.83;8.40;;;19.60;43.80;;;;;;5055388;28;20484;-71
2021/03/24 01:16:49;;;;;;;7.57;5.83;;;19.60;43.80;;;;;;5055945;28;20780;-71
2021/03/24 01:19:16;;;;;;;8.83;7.53;;;19.60;43.80;;;;;;5051475;28;21061;-71
2021/03/24 01:21:42;;;;;;;8.17;7.40;;;19.70;43.90;;;;;;5053788;28;20820;-71
2021/03/24 01:24:08;;;;;;;8.10;7.30;;;19.60;43.70;;;;;;5057718;28;21577;-71
2021/03/24 01:26:34;;;;;;;12.00;7.50;;;19.60;43.70;;;;;;5056859;28;20481;-71
2021/03/24 01:29:01;;;;;;;8.90;7.23;;;19.60;43.60;;;;;;5060440;28;20489;-71
2021/03/24 01:31:27;;;;;;;11.13;7.20;;;19.60;43.70;;;;;;5058804;28;20486;-70
2021/03/24 01:33:53;;;;;;;12.33;8.27;;;19.70;43.80;;;;;;5060264;28;22108;-71
2021/03/24 01:36:20;;;;;;;8.63;7.00;;;19.60;43.40;;;;;;5060275;28;20837;-70
2021/03/24 01:38:47;;;;;;;9.80;7.53;;;19.60;43.50;;;;;;5047891;28;20471;-71
2021/03/24 01:41:13;;;;;;;12.77;8.07;;;19.60;43.60;;;;;;5081181;28;20494;-69
2021/03/24 01:43:39;;;;;;;8.97;6.90;;;19.60;43.60;;;;;;5059785;28;20861;-70
2021/03/24 01:46:44;;;;;;;9.30;7.87;;;19.60;43.50;;;;;;5056375;28;20492;-70
2021/03/24 01:49:14;;;;;;;13.07;8.30;;;19.60;43.50;;;;;;5041251;28;20508;-70
2021/03/24 01:51:42;;;;;;;9.47;6.57;;;19.60;43.30;;;;;;5057957;28;20547;-71
2021/03/24 01:54:11;;;;;;;11.63;7.80;;;19.60;43.50;;;;;;5057214;28;20489;-70
2021/03/24 01:56:37;;;;;;;10.97;8.07;;;19.60;43.70;;;;;;5071423;28;20613;-70
2021/03/24 01:59:03;;;;;;;8.63;6.90;;;19.60;43.70;;;;;;5060349;28;20489;-70
2021/03/24 02:01:29;;;;;;;8.03;6.43;;;19.70;43.90;;;;;;5054741;28;20488;-70
2021/03/24 02:03:56;;;;;;;7.50;6.80;;;19.70;43.70;;;;;;5058130;28;20539;-70
2021/03/24 02:06:26;;;;;;;11.03;7.47;;;19.70;43.50;;;;;;5058797;28;20494;-70
2021/03/24 02:08:58;;;;;;;13.97;8.97;;;19.70;43.50;;;;;;5057354;28;20568;-70
2021/03/24 02:11:29;;;;;;;10.17;8.27;;;19.70;43.50;;;;;;5058387;28;20562;-70
2021/03/24 02:13:57;;;;;;;14.00;7.30;;;19.70;43.50;;;;;;5057197;28;20850;-71
2021/03/24 02:16:25;;;;;;;10.43;8.10;;;19.60;43.40;;;;;;5071591;28;20476;-70
2021/03/24 02:18:52;;;;;;;12.40;7.80;;;19.60;43.50;;;;;;5058277;28;20497;-70
2021/03/24 02:21:20;;;;;;;13.03;8.57;;;19.60;43.50;;;;;;5058687;28;20490;-70
2021/03/24 02:23:55;;;;;;;11.60;8.10;;;19.60;43.60;;;;;;5051893;28;20470;-71
2021/03/24 02:26:27;;;;;;;10.60;8.47;;;19.60;43.70;;;;;;5055842;28;20489;-70
2021/03/24 02:28:54;;;;;;;10.40;8.67;;;19.60;43.50;;;;;;5046114;28;20490;-69
2021/03/24 02:31:22;;;;;;;10.97;8.60;;;19.60;43.50;;;;;;5052116;28;20536;-70
2021/03/24 02:33:49;;;;;;;9.93;7.67;;;19.60;43.60;;;;;;5070515;28;20474;-70
2021/03/24 02:36:16;;;;;;;11.70;8.67;;;19.60;43.60;;;;;;5069811;28;20479;-70
2021/03/24 02:38:43;;;;;;;11.23;8.00;;;19.60;43.60;;;;;;5055138;28;20493;-70
2021/03/24 02:41:09;;;;;;;9.07;6.97;;;19.60;43.70;;;;;;5056856;28;20519;-70
2021/03/24 02:43:36;;;;;;;10.33;7.70;;;19.60;43.60;;;;;;5057854;28;20481;-69
2021/03/24 02:46:06;;;;;;;11.97;7.63;;;19.60;43.70;;;;;;5058796;28;20481;-70
2021/03/24 02:48:33;;;;;;;11.30;8.00;;;19.60;43.70;;;;;;5054182;28;20583;-70
2021/03/24 02:51:00;;;;;;;13.43;8.57;;;19.70;43.70;;;;;;5043767;28;20502;-71
2021/03/24 02:53:27;;;;;;;10.43;8.47;;;19.60;43.50;;;;;;5052862;28;20485;-70
2021/03/24 02:55:53;;;;;;;11.40;7.40;;;19.60;43.60;;;;;;5055097;28;20493;-70
2021/03/24 02:58:19;;;;;;;11.50;7.50;;;19.60;43.60;;;;;;5055656;28;20477;-70
2021/03/24 03:00:46;;;;;;;10.50;8.60;;;19.60;43.60;;;;;;5058227;28;20568;-70
2021/03/24 03:03:15;;;;;;;8.87;7.97;;;19.60;43.60;;;;;;5057208;28;20568;-70
2021/03/24 03:05:41;;;;;;;8.77;7.83;;;19.60;43.60;;;;;;5066814;28;20484;-70
2021/03/24 03:08:10;;;;;;;10.83;8.03;;;19.70;43.80;;;;;;5062730;28;20493;-69
2021/03/24 03:10:40;;;;;;;13.03;7.87;;;19.70;43.70;;;;;;5045780;28;20484;-70
2021/03/24 03:13:10;;;;;;;8.50;7.17;;;19.70;43.50;;;;;;5058074;28;20485;-70
2021/03/24 03:15:38;;;;;;;8.63;7.40;;;19.80;43.60;;;;;;5058446;28;20480;-70
2021/03/24 03:18:06;;;;;;;8.73;7.13;;;19.80;43.50;;;;;;5054830;28;20474;-70
2021/03/24 03:20:35;;;;;;;8.77;7.87;;;19.80;43.50;;;;;;5054797;28;20493;-70
2021/03/24 03:23:03;;;;;;;10.73;7.77;;;19.80;43.50;;;;;;5053468;28;20478;-70
2021/03/24 03:25:30;;;;;;;10.17;8.00;;;19.70;43.40;;;;;;5052033;28;20535;-70
2021/03/24 03:27:57;;;;;;;9.37;8.33;;;19.70;43.50;;;;;;5054693;28;20519;-70
2021/03/24 03:30:25;;;;;;;10.10;8.90;;;19.70;43.70;;;;;;5058154;28;20477;-69
2021/03/24 03:32:51;;;;;;;15.50;8.87;;;19.70;43.70;;;;;;5057611;28;20501;-70
2021/03/24 03:35:19;;;;;;;12.53;8.43;;;19.70;43.60;;;;;;5057002;28;20510;-69
2021/03/24 03:37:46;;;;;;;10.90;8.77;;;19.70;43.60;;;;;;5055078;28;20492;-70
2021/03/24 03:40:14;;;;;;;14.63;9.03;;;19.70;43.50;;;;;;5056830;28;21152;-70
2021/03/24 03:42:40;;;;;;;15.63;9.30;;;19.60;43.40;;;;;;5060694;28;20515;-70
2021/03/24 03:45:09;;;;;;;12.87;9.83;;;19.60;43.60;;;;;;5075120;28;20493;-70
2021/03/24 03:47:35;;;;;;;13.70;9.10;;;19.60;43.30;;;;;;5054922;28;20488;-70
2021/03/24 03:50:01;;;;;;;15.30;8.50;;;19.60;43.10;;;;;;5049846;28;20489;-70
2021/03/24 03:52:36;;;;;;;13.23;7.80;;;19.60;43.30;;;;;;5074423;28;20601;-69
2021/03/24 03:55:13;;;;;;;7.70;6.93;;;19.70;43.70;;;;;;5067603;28;20543;-70
2021/03/24 03:57:44;;;;;;;11.40;9.00;;;19.70;43.70;;;;;;5043259;28;20476;-69
2021/03/24 04:00:14;;;;;;;10.80;7.90;;;19.60;43.60;;;;;;5043220;28;20531;-70
2021/03/24 04:02:42;;;;;;;11.83;8.67;;;19.70;43.70;;;;;;5044999;28;20489;-70
2021/03/24 04:05:10;;;;;;;12.20;9.43;;;19.60;43.50;;;;;;5053965;28;20474;-69
2021/03/24 04:07:38;;;;;;;13.40;8.63;;;19.60;43.40;;;;;;5053381;28;20485;-70
2021/03/24 04:10:05;;;;;;;10.93;8.90;;;19.60;43.50;;;;;;5055253;28;20478;-70
2021/03/24 04:12:34;;;;;;;16.50;8.83;;;19.50;43.30;;;;;;5056282;28;20490;-70
2021/03/24 04:15:00;;;;;;;15.20;9.47;;;19.50;43.30;;;;;;5055012;28;20478;-70
2021/03/24 04:17:28;;;;;;;12.03;9.47;;;19.50;43.10;;;;;;5051120;28;20498;-71
2021/03/24 04:19:54;;;;;;;11.70;9.03;;;19.60;43.10;;;;;;5057447;28;20523;-70
2021/03/24 04:22:22;;;;;;;15.23;9.10;;;19.60;43.90;;;;;;5052218;28;20493;-70
2021/03/24 04:24:50;;;;;;;15.60;11.10;;;19.70;43.00;;;;;;5052435;28;20486;-70
2021/03/24 04:27:17;;;;;;;14.47;9.60;;;19.60;42.80;;;;;;5051365;28;20477;-69
2021/03/24 04:29:46;;;;;;;14.27;8.80;;;19.70;42.80;;;;;;5053496;28;20481;-70
2021/03/24 04:32:13;;;;;;;16.13;8.90;;;19.70;42.80;;;;;;5056205;28;20563;-70
2021/03/24 04:34:39;;;;;;;10.70;8.63;;;19.70;42.80;;;;;;5054565;28;20481;-70
2021/03/24 04:37:06;;;;;;;16.43;9.30;;;19.80;42.80;;;;;;5056407;28;20478;-70
2021/03/24 04:39:34;;;;;;;9.23;8.10;;;19.80;42.70;;;;;;5053887;28;20490;-70
2021/03/24 04:42:01;;;;;;;12.30;9.67;;;19.80;42.60;;;;;;5053748;28;20869;-70
2021/03/24 04:44:29;;;;;;;11.63;8.37;;;19.80;42.70;;;;;;5056314;28;20478;-71
2021/03/24 04:46:58;;;;;;;14.73;8.67;;;19.80;42.80;;;;;;5059384;28;20563;-70
2021/03/24 04:49:26;;;;;;;16.83;8.20;;;19.80;42.80;;;;;;5064084;28;20520;-70
2021/03/24 04:51:52;;;;;;;11.73;8.90;;;19.80;43.70;;;;;;5052728;28;21248;-69
2021/03/24 04:54:21;;;;;;;10.97;8.63;;;19.70;42.90;;;;;;5055950;28;20524;-70
2021/03/24 04:56:48;;;;;;;10.60;9.50;;;19.70;43.00;;;;;;5052745;28;20483;-70
2021/03/24 04:59:16;;;;;;;13.53;9.50;;;19.80;43.00;;;;;;5054170;28;20474;-69
2021/03/24 05:01:44;;;;;;;13.07;8.90;;;19.70;43.00;;;;;;5049856;28;20494;-70
2021/03/24 05:04:20;;;;;;;14.57;9.23;;;19.70;43.10;;;;;;5055964;28;20494;-70
2021/03/24 05:06:48;;;;;;;14.50;9.77;;;19.70;43.20;;;;;;5051599;28;20503;-70
2021/03/24 05:09:14;;;;;;;11.67;8.00;;;19.70;43.20;;;;;;5055772;28;20485;-71
2021/03/24 05:11:44;;;;;;;13.60;9.77;;;19.60;43.10;;;;;;5041977;28;20501;-70
2021/03/24 05:14:18;;;;;;;10.97;9.17;;;19.60;43.00;;;;;;5051453;28;20482;-70
2021/03/24 05:16:45;;;;;;;12.67;9.47;;;19.70;43.10;;;;;;5047855;28;21032;-69
2021/03/24 05:19:19;;;;;;;12.90;9.17;;;19.70;43.00;;;;;;5055544;28;20531;-70
2021/03/24 05:22:01;;;;;;;12.83;8.90;;;19.80;42.80;;;;;;5050371;28;20503;-69
2021/03/24 05:24:29;;;;;;;15.37;9.77;;;19.80;42.70;;;;;;5050179;28;20473;-70
2021/03/24 05:27:00;;;;;;;10.80;8.47;;;19.80;42.50;;;;;;5052834;28;20520;-71
2021/03/24 05:29:27;;;;;;;14.17;9.80;;;19.80;42.50;;;;;;5053642;28;20482;-70
2021/03/24 05:31:54;;;;;;;11.77;8.87;;;19.90;42.60;;;;;;5052319;28;20496;-70
2021/03/24 05:34:24;;;;;;;12.07;9.90;;;19.90;42.50;;;;;;5053405;28;21001;-70
2021/03/24 05:36:51;;;;;;;13.63;8.73;;;19.90;42.40;;;;;;5052786;28;20473;-70
2021/03/24 05:39:20;;;;;;;11.30;9.30;;;20.00;42.40;;;;;;5055847;28;20492;-71
2021/03/24 05:41:48;;;;;;;12.67;9.50;;;20.00;42.30;;;;;;5050811;28;20489;-70
2021/03/24 05:44:24;;;;;;;15.40;10.13;;;20.00;42.20;;;;;;5052129;28;20539;-71
2021/03/24 05:47:07;;;;;;;11.53;8.50;;;20.00;42.30;;;;;;5049798;28;20519;-70
2021/03/24 05:49:38;;;;;;;13.37;10.07;;;20.00;42.30;;;;;;5061729;28;20477;-69
2021/03/24 05:52:22;;;;;;;17.00;11.00;;;19.90;42.20;;;;;;5076816;28;20477;-70
2021/03/24 05:54:54;;;;;;;15.40;10.27;;;19.90;42.30;;;;;;5058132;28;20483;-70
2021/03/24 05:57:36;;;;;;;13.80;11.07;;;19.90;42.30;;;;;;5052796;28;20535;-71
2021/03/24 06:00:15;;;;;;;15.07;10.30;;;19.80;42.30;;;;;;5054139;28;20532;-71
2021/03/24 06:02:46;;;;;;;19.70;10.60;;;19.80;42.30;;;;;;5044214;28;20904;-69
2021/03/24 06:05:13;;;;;;;15.37;10.40;;;19.90;42.30;;;;;;5041878;28;20990;-70
2021/03/24 06:08:37;;;;;;;17.73;12.40;;;19.80;42.20;;;;;;5052492;28;20474;-70
2021/03/24 06:11:16;;;;;;;17.50;11.77;;;19.80;42.20;;;;;;5052402;28;20489;-70
2021/03/24 06:14:07;;;;;;;15.90;11.07;;;19.80;42.40;;;;;;5045757;28;21613;-70
2021/03/24 06:16:47;;;;;;;16.37;10.80;;;19.80;42.50;;;;;;5058080;28;20485;-71
2021/03/24 06:19:26;;;;;;;15.70;10.83;;;19.80;43.20;;;;;;5055277;28;20480;-71
2021/03/24 06:21:57;;;;;;;18.20;11.57;;;19.80;42.30;;;;;;5058088;28;20481;-70
2021/03/24 06:24:40;;;;;;;15.27;11.83;;;19.80;42.30;;;;;;5054343;28;20478;-71
2021/03/24 06:27:26;;;;;;;14.13;10.23;;;19.80;42.30;;;;;;5056261;28;20477;-71
2021/03/24 06:29:59;;;;;;;23.80;11.40;;;19.80;42.30;;;;;;5053268;28;20485;-71
2021/03/24 06:32:55;;;;;;;13.53;10.10;;;19.80;42.30;;;;;;5037381;28;20596;-70
2021/03/24 06:35:51;;;;;;;19.83;9.60;;;19.90;42.30;;;;;;5063992;28;20482;-70
2021/03/24 06:38:25;;;;;;;20.93;12.00;;;19.90;42.30;;;;;;5034158;28;20466;-70
2021/03/24 06:41:13;;;;;;;17.10;10.77;;;19.90;42.40;;;;;;5056349;28;20481;-71
2021/03/24 06:43:49;;;;;;;15.73;10.97;;;19.90;42.40;;;;;;5050336;28;20487;-70
2021/03/24 06:46:21;;;;;;;16.10;10.80;;;19.90;42.40;;;;;;5051405;28;21403;-71
2021/03/24 06:49:07;;;;;;;17.60;10.60;;;19.80;42.50;;;;;;5052466;28;21587;-71
2021/03/24 06:52:10;;;;;;;18.73;12.00;;;19.80;42.30;;;;;;5042947;28;20483;-70
2021/03/24 06:55:03;;;;;;;18.90;12.30;;;19.80;42.30;;;;;;5064934;28;20476;-71
2021/03/24 06:57:50;;;;;;;15.63;11.33;;;19.80;42.50;;;;;;5058448;28;20485;-71
2021/03/24 07:00:32;;;;;;;18.97;11.83;;;19.80;42.30;;;;;;5046710;28;20472;-70
2021/03/24 07:03:41;;;;;;;19.23;12.70;;;19.80;42.30;;;;;;5070808;28;20584;-70
2021/03/24 07:06:16;;;;;;;22.57;12.13;;;19.90;42.20;;;;;;4993545;28;20479;-70
2021/03/24 07:08:47;;;;;;;17.60;11.27;;;19.90;42.20;;;;;;5028178;28;20494;-70
2021/03/24 07:11:24;;;;;;;18.27;12.50;;;19.80;42.20;;;;;;5050036;28;20483;-71
2021/03/24 07:14:14;;;;;;;18.57;11.53;;;19.80;42.20;;;;;;5050555;28;20491;-70
2021/03/24 07:16:49;;;;;;;15.50;11.23;;;19.80;42.40;;;;;;5043018;28;20490;-70
2021/03/24 07:19:33;;;;;;;17.40;13.40;;;19.80;42.20;;;;;;5049387;28;20489;-70
2021/03/24 07:22:20;;;;;;;18.43;11.57;;;19.80;42.00;;;;;;5053846;28;20489;-69
2021/03/24 07:25:13;;;;;;;14.70;9.57;;;19.80;42.00;;;;;;5053699;28;20489;-70
2021/03/24 07:28:02;;;;;;;14.90;8.53;;;19.80;42.20;;;;;;5052690;28;20465;-70
2021/03/24 07:30:35;;;;;;;14.67;9.63;;;19.80;42.50;;;;;;5058222;28;20494;-71
2021/03/24 07:33:03;;;;;;;11.53;8.60;;;19.90;42.40;;;;;;5051963;28;20493;-70
2021/03/24 07:35:44;;;;;;;10.20;7.77;;;19.90;42.30;;;;;;5054635;28;20482;-70
2021/03/24 07:38:44;;;;;;;11.23;7.57;;;19.90;42.30;;;;;;5049196;28;21471;-71
2021/03/24 07:41:26;;;;;;;8.60;7.20;;;19.90;42.40;;;;;;5043614;28;20470;-70
2021/03/24 07:44:28;;;;;;;8.63;6.93;;;19.90;42.50;;;;;;5056805;28;20478;-70
2021/03/24 07:47:08;;;;;;;9.03;7.53;;;19.90;42.50;;;;;;5027731;28;20616;-70
2021/03/24 07:49:50;;;;;;;9.53;6.93;;;19.80;42.50;;;;;;5053141;28;21102;-70
2021/03/24 07:52:52;;;;;;;10.07;7.47;;;19.90;43.00;;;;;;5046788;28;20584;-70
2021/03/24 07:55:23;;;;;;;8.40;5.97;;;19.80;43.00;;;;;;5049875;28;20477;-70
2021/03/24 07:57:54;;;;;;;12.00;7.73;;;19.80;42.90;;;;;;5049655;28;20523;-69
2021/03/24 08:00:23;;;;;;;8.73;7.60;;;19.80;42.90;;;;;;5055699;28;20981;-70
2021/03/24 08:02:58;;;;;;;12.40;7.33;;;19.80;42.90;;;;;;5052623;28;20492;-70
2021/03/24 08:05:43;;;;;;;12.30;8.00;;;19.80;43.10;;;;;;5053463;28;20527;-70
2021/03/24 08:08:11;;;;;;;7.80;6.70;;;19.80;43.00;;;;;;5040082;28;20486;-69
2021/03/24 08:10:41;;;;;;;9.80;7.87;;;19.80;43.00;;;;;;5055903;28;20490;-69
2021/03/24 08:13:29;;;;;;;10.80;8.23;;;19.80;42.90;;;;;;5055478;28;20482;-69
2021/03/24 08:16:04;;;;;;;11.40;8.43;;;19.90;43.00;;;;;;5051993;28;20877;-70
2021/03/24 08:18:37;;;;;;;9.00;7.20;;;19.90;42.90;;;;;;5056144;28;20478;-69
2021/03/24 08:21:05;;;;;;;11.60;7.53;;;19.90;42.90;;;;;;5056249;28;20482;-70
2021/03/24 08:23:57;;;;;;;8.40;7.00;;;19.80;42.80;;;;;;5053168;28;20489;-70
2021/03/24 08:26:25;;;;;;;10.40;7.33;;;19.80;42.90;;;;;;5053518;28;20480;-70
2021/03/24 08:28:55;;;;;;;10.50;8.00;;;19.80;43.00;;;;;;5052232;28;21198;-70
2021/03/24 08:31:42;;;;;;;10.60;7.10;;;19.80;43.20;;;;;;5050351;28;20483;-70
2021/03/24 08:34:21;;;;;;;9.67;8.27;;;19.80;43.10;;;;;;5063714;28;20550;-69
2021/03/24 08:37:00;;;;;;;13.33;8.10;;;19.80;43.20;;;;;;5052758;28;20512;-69
2021/03/24 08:39:50;;;;;;;11.27;10.00;;;19.70;43.10;;;;;;5054412;28;20481;-70
2021/03/24 08:42:41;;;;;;;10.53;7.77;;;19.70;43.10;;;;;;5051145;28;20660;-69
2021/03/24 08:45:17;;;;;;;10.30;8.10;;;19.70;43.20;;;;;;5054849;28;21581;-70
2021/03/24 08:47:46;;;;;;;8.67;6.80;;;19.70;43.30;;;;;;5049868;28;20490;-71
2021/03/24 08:50:13;;;;;;;7.73;7.00;;;19.70;43.30;;;;;;5053014;28;20480;-70
2021/03/24 08:52:44;;;;;;;9.40;7.90;;;19.80;43.30;;;;;;5047630;28;20496;-70
2021/03/24 08:55:26;;;;;;;9.73;8.07;;;19.90;43.20;;;;;;5048401;28;21061;-69
2021/03/24 08:58:00;;;;;;;9.70;6.80;;;19.90;43.10;;;;;;5045849;28;20577;-70
2021/03/24 09:01:09;;;;;;;9.90;7.70;;;19.90;43.00;;;;;;5067548;28;20488;-70
2021/03/24 09:03:59;;;;;;;10.47;7.80;;;19.90;43.00;;;;;;5029428;28;20512;-70
2021/03/24 09:06:31;;;;;;;9.47;7.23;;;20.00;43.00;;;;;;5027126;28;20529;-70
2021/03/24 09:09:02;;;;;;;7.73;6.93;;;19.90;43.40;;;;;;5042490;28;20863;-70
2021/03/24 09:11:37;;;;;;;8.17;7.40;;;19.90;43.40;;;;;;5051357;28;21008;-70
2021/03/24 09:14:09;;;;;;;8.03;6.90;;;19.90;43.30;;;;;;5051045;28;20473;-70
2021/03/24 09:16:50;;;;;;;10.33;7.20;;;20.00;43.40;;;;;;5049748;28;20560;-69
2021/03/24 09:19:40;;;;;;;8.90;6.50;;;20.00;43.20;;;;;;5053729;28;20478;-70
2021/03/24 09:22:08;;;;;;;7.03;6.20;;;20.00;43.10;;;;;;5068865;28;20479;-69
2021/03/24 09:24:54;;;;;;;8.27;7.10;;;20.10;43.10;;;;;;5052042;28;20542;-69
2021/03/24 09:27:43;;;;;;;8.13;6.13;;;20.10;43.10;;;;;;5039886;28;20474;-71
2021/03/24 09:30:32;;;;;;;11.47;7.60;;;20.10;43.10;;;;;;5058395;28;20478;-70
2021/03/24 09:33:05;;;;;;;7.20;6.50;;;20.10;43.00;;;;;;5063949;28;20509;-69
2021/03/24 09:35:37;;;;;;;9.00;7.33;;;20.10;43.00;;;;;;5057753;28;20564;-69
2021/03/24 09:38:04;;;;;;;8.00;7.13;;;20.10;43.10;;;;;;5050611;28;20481;-70
2021/03/24 09:40:36;;;;;;;8.30;7.23;;;20.00;43.10;;;;;;5054445;28;20493;-70
2021/03/24 09:43:05;;;;;;;10.70;7.43;;;20.00;43.20;;;;;;5061992;28;20473;-69
2021/03/24 09:45:33;;;;;;;7.07;6.37;;;19.90;43.20;;;;;;5053374;28;20596;-69
2021/03/24 09:48:09;;;;;;;14.13;7.73;;;19.90;43.20;;;;;;5057271;28;20494;-70
2021/03/24 09:50:43;;;;;;;10.00;7.40;;;19.90;43.30;;;;;;5051902;28;20506;-70
2021/03/24 09:53:17;;;;;;;10.80;7.13;;;19.90;43.40;;;;;;5054626;28;20572;-70
2021/03/24 09:55:46;;;;;;;15.90;9.23;;;19.90;43.50;;;;;;5041053;28;20485;-69
2021/03/24 09:58:45;;;;;;;8.80;7.90;;;19.80;43.50;;;;;;5037064;28;20477;-67
2021/03/24 10:01:35;;;;;;;10.93;7.73;;;19.80;43.60;;;;;;5042669;28;21120;-68
2021/03/24 10:04:09;;;;;;;8.90;6.67;;;19.90;43.60;;;;;;5030720;28;20683;-69
2021/03/24 10:06:41;;;;;;;9.87;7.27;;;20.00;43.50;;;;;;5058512;28;20985;-69
2021/03/24 10:09:11;;;;;;;10.03;7.30;;;20.00;43.50;;;;;;5055911;28;20538;-70
2021/03/24 10:11:42;;;;;;;9.63;7.47;;;20.00;43.30;;;;;;5053299;28;20515;-69
2021/03/24 10:14:10;;;;;;;7.20;6.20;;;20.00;43.40;;;;;;5058313;28;21485;-69
2021/03/24 10:16:37;;;;;;;8.80;6.87;;;20.00;43.30;;;;;;5059341;28;20476;-69
2021/03/24 10:19:06;;;;;;;8.20;6.43;;;20.00;43.30;;;;;;5056961;28;21543;-69
2021/03/24 10:21:39;;;;;;;12.40;6.40;;;20.00;43.30;;;;;;5057185;28;20481;-69
2021/03/24 10:24:12;;;;;;;11.03;7.10;;;20.00;43.40;;;;;;5055149;28;20485;-69
2021/03/24 10:26:41;;;;;;;7.13;6.00;;;20.00;44.10;;;;;;5058266;28;20478;-69
2021/03/24 10:29:09;;;;;;;7.70;6.90;;;20.00;43.20;;;;;;5059132;28;20477;-70
2021/03/24 10:31:36;;;;;;;6.70;6.10;;;20.10;43.30;;;;;;5058921;28;20485;-69
2021/03/24 10:34:19;;;;;;;8.00;6.10;;;20.10;43.30;;;;;;5056618;28;20486;-69
2021/03/24 10:36:50;;;;;;;6.63;5.30;;;20.10;43.30;;;;;;5057469;28;20481;-69
2021/03/24 10:39:19;;;;;;;6.40;5.60;;;20.10;43.30;;;;;;5072492;28;21054;-70
2021/03/24 10:41:52;;;;;;;6.13;5.53;;;20.00;43.30;;;;;;5057953;28;20489;-69
2021/03/24 10:44:22;;;;;;;9.00;6.57;;;20.00;43.30;;;;;;5056319;28;20574;-69
2021/03/24 10:47:00;;;;;;;7.13;6.40;;;20.00;43.40;;;;;;5057397;28;20489;-69
2021/03/24 10:49:28;;;;;;;7.33;5.50;;;20.00;43.30;;;;;;5056613;28;20481;-70
2021/03/24 10:52:00;;;;;;;10.63;6.80;;;20.00;43.40;;;;;;5056234;28;20931;-69
2021/03/24 10:54:28;;;;;;;7.30;5.70;;;20.00;43.40;;;;;;5070883;28;20906;-69
2021/03/24 10:57:23;;;;;;;11.50;6.20;;;20.00;43.50;;;;;;5055550;28;20863;-70
2021/03/24 10:59:52;;;;;;;7.70;5.77;;;20.00;44.20;;;;;;5058234;28;20479;-69
2021/03/24 11:02:24;;;;;;;9.90;5.10;;;20.00;43.40;;;;;;5068401;28;20476;-69
2021/03/24 11:04:54;;;;;;;5.13;4.83;;;20.00;43.40;;;;;;5065824;28;20489;-69
2021/03/24 11:07:25;;;;;;;8.07;6.60;;;20.00;43.40;;;;;;5055844;28;21590;-70
2021/03/24 11:09:54;;;;;;;6.63;6.00;;;20.00;43.30;;;;;;5055246;28;20517;-70
2021/03/24 11:12:23;;;;;;;5.60;5.13;;;20.00;43.40;;;;;;5056001;28;20559;-69
2021/03/24 11:15:00;;;;;;;7.67;6.87;;;19.90;43.40;;;;;;5076094;28;20491;-70
2021/03/24 11:17:30;;;;;;;9.80;5.30;;;19.90;43.40;;;;;;5055651;28;20932;-70
2021/03/24 11:19:59;;;;;;;7.27;5.07;;;19.90;43.40;;;;;;5067699;28;20968;-70
2021/03/24 11:22:30;;;;;;;5.97;5.40;;;19.90;43.50;;;;;;5057877;28;21178;-69
2021/03/24 11:24:58;;;;;;;7.47;5.70;;;19.90;43.50;;;;;;5044811;28;20580;-70
2021/03/24 11:27:29;;;;;;;6.33;5.73;;;19.80;43.40;;;;;;5040340;28;20934;-69
2021/03/24 11:30:02;;;;;;;5.80;5.17;;;19.80;43.50;;;;;;5058375;28;20490;-70
2021/03/24 11:32:32;;;;;;;6.40;5.13;;;19.80;43.50;;;;;;5057884;28;20488;-69
2021/03/24 11:35:02;;;;;;;5.77;5.27;;;19.80;43.50;;;;;;5057920;28;20493;-69
2021/03/24 11:37:41;;;;;;;6.57;5.57;;;19.80;43.60;;;;;;5058445;28;22015;-70
2021/03/24 11:40:16;;;;;;;7.43;5.90;;;19.80;43.60;;;;;;5063648;28;21122;-69
2021/03/24 11:42:49;;;;;;;5.93;5.30;;;19.80;43.60;;;;;;5055306;28;20507;-69
2021/03/24 11:45:18;;;;;;;6.10;5.33;;;19.80;43.60;;;;;;5064783;28;20825;-70
2021/03/24 11:47:51;;;;;;;7.17;5.87;;;19.80;43.50;;;;;;5065427;28;20493;-70
2021/03/24 11:50:19;;;;;;;8.10;5.97;;;19.90;43.60;;;;;;5056260;28;20485;-70
2021/03/24 11:52:53;;;;;;;10.30;5.90;;;19.90;43.60;;;;;;5056975;28;20490;-70
2021/03/24 11:55:32;;;;;;;8.33;6.87;;;19.90;43.40;;;;;;5051458;28;20482;-69
2021/03/24 11:58:04;;;;;;;10.27;7.03;;;19.90;43.30;;;;;;5067210;28;20484;-69
2021/03/24 12:00:37;;;;;;;9.87;7.43;;;19.90;43.20;;;;;;5059272;28;20547;-69
2021/03/24 12:03:08;;;;;;;10.63;7.00;;;20.00;43.40;;;;;;5053575;28;20504;-69
2021/03/24 12:05:36;;;;;;;9.13;7.03;;;19.90;43.30;;;;;;5056874;28;20648;-69
2021/03/24 12:08:16;;;;;;;8.73;7.00;;;19.90;43.50;;;;;;5054693;28;20618;-69
2021/03/24 12:10:42;;;;;;;8.83;6.00;;;19.90;44.10;;;;;;5045073;28;20489;-70
2021/03/24 12:13:14;;;;;;;8.33;7.10;;;19.90;43.30;;;;;;5056187;28;20498;-69
2021/03/24 12:15:42;;;;;;;9.80;7.60;;;19.90;43.30;;;;;;5056402;28;20492;-69
2021/03/24 12:18:13;;;;;;;9.17;7.30;;;19.90;43.30;;;;;;5052321;28;21047;-69
2021/03/24 12:20:54;;;;;;;8.57;7.67;;;19.90;43.20;;;;;;5074362;28;21518;-70
2021/03/24 12:23:21;;;;;;;7.37;6.67;;;19.90;43.10;;;;;;5053290;28;20477;-70
2021/03/24 12:25:48;;;;;;;14.50;8.40;;;19.90;43.20;;;;;;5050526;28;20498;-69
2021/03/24 12:28:14;;;;;;;7.97;7.30;;;19.90;43.30;;;;;;5057492;28;20481;-69
2021/03/24 12:30:44;;;;;;;8.87;7.23;;;19.90;43.30;;;;;;5056396;28;20474;-69
2021/03/24 12:33:23;;;;;;;7.87;6.73;;;19.90;43.30;;;;;;5057292;28;20541;-69
2021/03/24 12:36:01;;;;;;;11.30;7.87;;;19.90;43.20;;;;;;5064404;28;20489;-69
2021/03/24 12:38:28;;;;;;;12.60;8.00;;;19.90;43.30;;;;;;5054648;28;20516;-70
2021/03/24 12:40:55;;;;;;;12.43;7.40;;;19.90;43.30;;;;;;5056640;28;20485;-70
2021/03/24 12:43:24;;;;;;;8.60;6.87;;;19.80;43.30;;;;;;5043024;28;20502;-69
2021/03/24 12:45:50;;;;;;;8.60;6.30;;;19.80;43.40;;;;;;5045294;28;20492;-69
2021/03/24 12:48:24;;;;;;;11.47;7.23;;;19.80;43.40;;;;;;5056189;28;20482;-69
2021/03/24 12:50:54;;;;;;;11.00;7.67;;;19.80;43.40;;;;;;5053690;28;20478;-69
2021/03/24 12:53:25;;;;;;;13.80;6.40;;;19.80;43.50;;;;;;5054464;28;21100;-69
2021/03/24 12:55:57;;;;;;;9.00;6.90;;;19.70;43.50;;;;;;5052781;28;20483;-69
2021/03/24 12:58:42;;;;;;;6.83;6.13;;;19.70;43.50;;;;;;5056751;28;20517;-69
2021/03/24 13:01:32;;;;;;;10.70;6.60;;;19.80;43.70;;;;;;5055007;28;20526;-70
2021/03/24 13:04:36;;;;;;;6.70;6.00;;;19.80;43.60;;;;;;5055429;28;20555;-70
2021/03/24 13:07:30;;;;;;;6.80;6.13;;;19.80;43.60;;;;;;5054681;28;20489;-69
2021/03/24 13:10:09;;;;;;;6.57;5.90;;;19.80;43.60;;;;;;5058702;28;20489;-70